createdAt,value
2023-03-12T00:02:21.491Z,71.25
2023-03-12T00:04:54.180Z,71.14
2023-03-12T00:07:26.952Z,72.69
2023-03-12T00:09:59.619Z,72.20
2023-03-12T00:12:32.361Z,71.11
2023-03-12T00:15:07.220Z,71.08
2023-03-12T00:17:39.951Z,71.26
2023-03-12T00:20:13.411Z,71.24
2023-03-12T00:22:46.113Z,71.45
2023-03-12T00:25:19.097Z,70.38
2023-03-12T00:27:51.778Z,70.75
2023-03-12T00:30:28.338Z,70.46
2023-03-12T00:33:01.086Z,70.46
2023-03-12T00:35:34.063Z,70.18
2023-03-12T00:38:06.663Z,70.68
2023-03-12T00:40:39.783Z,70.62
2023-03-12T00:43:12.572Z,70.73
2023-03-12T00:45:47.135Z,70.26
2023-03-12T00:48:19.944Z,70.39
2023-03-12T00:50:52.479Z,70.57
2023-03-12T00:53:25.481Z,70.92
2023-03-12T00:55:58.315Z,70.54
2023-03-12T00:58:30.993Z,70.71
2023-03-12T01:01:05.185Z,70.25
2023-03-12T01:03:37.983Z,70.42
2023-03-12T01:06:10.709Z,70.32
2023-03-12T01:08:43.287Z,70.35
2023-03-12T01:11:16.556Z,69.98
2023-03-12T01:13:49.516Z,70.05
2023-03-12T01:16:28.088Z,70.19
2023-03-12T01:19:01.746Z,70.30
2023-03-12T01:21:34.293Z,70.16
2023-03-12T01:24:07.862Z,70.11
2023-03-12T01:26:40.599Z,70.29
2023-03-12T01:29:13.205Z,70.14
2023-03-12T01:31:47.229Z,70.37
2023-03-12T01:34:20.050Z,70.56
2023-03-12T01:36:52.627Z,70.49
2023-03-12T01:39:25.750Z,70.40
2023-03-12T01:41:58.381Z,70.47
2023-03-12T01:44:31.206Z,70.29
2023-03-12T01:47:05.239Z,70.44
2023-03-12T01:49:38.237Z,70.49
2023-03-12T01:52:12.213Z,70.38
2023-03-12T01:54:56.504Z,70.09
2023-03-12T01:57:32.608Z,70.47
2023-03-12T02:00:08.896Z,70.07
2023-03-12T02:02:50.394Z,70.12
2023-03-12T02:05:30.706Z,70.38
2023-03-12T02:08:03.697Z,70.00
2023-03-12T02:10:36.530Z,70.20
2023-03-12T02:13:09.441Z,70.47
2023-03-12T02:15:42.143Z,70.22
2023-03-12T02:18:18.003Z,70.33
2023-03-12T02:20:54.090Z,70.46
2023-03-12T02:23:29.156Z,70.74
2023-03-12T02:26:04.647Z,70.65
2023-03-12T02:28:43.776Z,70.76
2023-03-12T02:31:19.036Z,70.80
2023-03-12T02:33:52.949Z,70.37
2023-03-12T02:36:25.897Z,70.72
2023-03-12T02:38:58.816Z,70.39
2023-03-12T02:41:35.078Z,70.44
2023-03-12T02:44:11.275Z,70.56
2023-03-12T02:46:45.663Z,69.91
2023-03-12T02:49:19.898Z,70.50
2023-03-12T02:51:52.816Z,70.54
2023-03-12T02:54:26.231Z,70.65
2023-03-12T02:57:00.275Z,70.35
2023-03-12T02:59:35.355Z,70.71
2023-03-12T03:02:12.625Z,70.69
2023-03-12T03:04:45.473Z,70.41
2023-03-12T03:07:18.315Z,70.89
2023-03-12T03:09:50.931Z,70.80
2023-03-12T03:12:25.069Z,70.86
2023-03-12T03:14:58.011Z,70.49
2023-03-12T03:17:30.783Z,70.37
2023-03-12T03:20:06.050Z,70.68
2023-03-12T03:22:39.359Z,70.47
2023-03-12T03:25:12.188Z,70.42
2023-03-12T03:27:46.336Z,70.62
2023-03-12T03:30:19.237Z,70.68
2023-03-12T03:32:54.286Z,70.62
2023-03-12T03:35:27.468Z,70.63
2023-03-12T03:38:00.264Z,70.74
2023-03-12T03:40:32.981Z,70.83
2023-03-12T03:43:07.108Z,70.72
2023-03-12T03:45:39.980Z,70.95
2023-03-12T03:48:12.962Z,71.20
2023-03-12T03:50:45.661Z,70.92
2023-03-12T03:53:19.642Z,71.20
2023-03-12T03:55:52.370Z,70.92
2023-03-12T03:58:26.397Z,71.09
2023-03-12T04:00:58.952Z,71.24
2023-03-12T04:03:31.862Z,70.98
2023-03-12T04:06:05.899Z,71.03
2023-03-12T04:08:39.741Z,70.73
2023-03-12T04:11:16.800Z,71.34
2023-03-12T04:13:51.461Z,71.08
2023-03-12T04:16:27.654Z,71.23
2023-03-12T04:19:01.271Z,71.34
2023-03-12T04:21:34.253Z,71.04
2023-03-12T04:24:07.889Z,70.74
2023-03-12T04:26:41.278Z,71.40
2023-03-12T04:29:16.013Z,70.98
2023-03-12T04:31:48.924Z,71.05
2023-03-12T04:34:22.014Z,71.23
2023-03-12T04:36:56.596Z,71.02
2023-03-12T04:39:29.619Z,71.65
2023-03-12T04:42:03.124Z,71.27
2023-03-12T04:44:40.966Z,71.15
2023-03-12T04:47:14.079Z,71.24
2023-03-12T04:49:47.101Z,71.26
2023-03-12T04:52:20.153Z,71.70
2023-03-12T04:54:53.307Z,71.04
2023-03-12T04:57:26.480Z,71.39
2023-03-12T05:00:00.707Z,71.56
2023-03-12T05:02:33.578Z,71.39
2023-03-12T05:05:07.630Z,71.58
2023-03-12T05:07:41.459Z,72.03
2023-03-12T05:10:14.601Z,71.54
2023-03-12T05:12:47.244Z,71.32
2023-03-12T05:15:21.424Z,71.57
2023-03-12T05:17:54.904Z,71.82
2023-03-12T05:20:27.869Z,71.45
2023-03-12T05:23:00.561Z,71.30
2023-03-12T05:25:33.432Z,71.18
2023-03-12T05:28:06.019Z,71.17
2023-03-12T05:30:41.595Z,71.60
2023-03-12T05:33:14.341Z,71.96
2023-03-12T05:35:47.141Z,71.91
2023-03-12T05:38:20.295Z,72.27
2023-03-12T05:40:54.446Z,72.18
2023-03-12T05:43:27.641Z,71.86
2023-03-12T05:46:02.423Z,71.82
2023-03-12T05:48:35.180Z,71.99
2023-03-12T05:51:08.853Z,71.75
2023-03-12T05:53:41.812Z,71.71
2023-03-12T05:56:15.924Z,71.85
2023-03-12T05:58:49.133Z,72.15
2023-03-12T06:01:26.886Z,72.11
2023-03-12T06:04:01.257Z,72.25
2023-03-12T06:06:34.609Z,72.29
2023-03-12T06:09:07.302Z,72.01
2023-03-12T06:11:40.180Z,72.45
2023-03-12T06:14:12.967Z,72.37
2023-03-12T06:16:47.276Z,72.42
2023-03-12T06:19:19.900Z,71.40
2023-03-12T06:21:54.989Z,72.24
2023-03-12T06:24:27.915Z,72.27
2023-03-12T06:27:06.191Z,72.36
2023-03-12T06:29:38.760Z,72.48
2023-03-12T06:32:12.942Z,72.59
2023-03-12T06:34:45.990Z,72.61
2023-03-12T06:37:18.928Z,72.62
2023-03-12T06:39:52.259Z,72.96
2023-03-12T06:42:26.656Z,72.54
2023-03-12T06:44:59.216Z,72.76
2023-03-12T06:47:33.219Z,72.45
2023-03-12T06:50:06.229Z,72.65
2023-03-12T06:52:40.540Z,72.47
2023-03-12T06:55:13.247Z,72.49
2023-03-12T06:57:46.111Z,72.41
2023-03-12T07:00:19.370Z,73.02
2023-03-12T07:02:53.507Z,72.86
2023-03-12T07:05:30.232Z,72.62
2023-03-12T07:08:03.137Z,72.75
2023-03-12T07:10:39.229Z,72.72
2023-03-12T07:13:11.873Z,72.89
2023-03-12T07:15:45.991Z,72.99
2023-03-12T07:18:20.108Z,73.21
2023-03-12T07:20:52.918Z,73.31
2023-03-12T07:23:25.836Z,73.12
2023-03-12T07:25:58.759Z,72.67
2023-03-12T07:28:31.611Z,72.95
2023-03-12T07:31:05.229Z,72.95
2023-03-12T07:33:39.377Z,72.76
2023-03-12T07:36:12.270Z,72.33
2023-03-12T07:38:44.864Z,73.58
2023-03-12T07:41:17.502Z,73.00
2023-03-12T07:43:50.160Z,73.11
2023-03-12T07:46:22.745Z,73.07
2023-03-12T07:48:56.809Z,73.33
2023-03-12T07:51:29.531Z,73.24
2023-03-12T07:54:02.183Z,72.89
2023-03-12T07:56:35.825Z,72.89
2023-03-12T07:59:09.059Z,73.50
2023-03-12T08:01:43.983Z,72.96
2023-03-12T08:04:19.064Z,72.53
2023-03-12T08:06:51.690Z,73.33
2023-03-12T08:09:24.451Z,73.96
2023-03-12T08:12:00.263Z,73.01
2023-03-12T08:14:33.007Z,72.06
2023-03-12T08:17:05.789Z,72.83
2023-03-12T08:19:42.193Z,73.99
2023-03-12T08:22:14.795Z,73.92
2023-03-12T08:24:47.700Z,74.58
2023-03-12T08:27:20.237Z,75.24
2023-03-12T08:29:52.966Z,75.24
2023-03-12T08:32:25.622Z,74.39
2023-03-12T08:34:59.756Z,75.00
2023-03-12T08:37:32.927Z,75.48
2023-03-12T08:40:13.003Z,75.34
2023-03-12T08:42:46.242Z,74.89
2023-03-12T08:45:21.878Z,76.10
2023-03-12T08:47:54.503Z,76.73
2023-03-12T08:50:29.555Z,76.45
2023-03-12T08:53:02.337Z,76.95
2023-03-12T08:55:39.168Z,76.16
2023-03-12T08:58:11.930Z,76.14
2023-03-12T09:00:52.267Z,76.41
2023-03-12T09:03:25.481Z,75.55
2023-03-12T09:06:05.193Z,76.58
2023-03-12T09:08:37.791Z,76.18
2023-03-12T09:11:11.086Z,77.02
2023-03-12T09:14:16.871Z,76.80
2023-03-12T09:16:37.071Z,77.16
2023-03-12T09:19:09.777Z,77.94
2023-03-12T09:21:43.913Z,76.83
2023-03-12T09:24:16.756Z,77.30
2023-03-12T09:26:49.407Z,76.83
2023-03-12T09:29:22.328Z,77.42
2023-03-12T09:31:55.403Z,78.33
2023-03-12T09:34:28.042Z,78.00
2023-03-12T09:37:02.299Z,77.63
2023-03-12T09:39:35.387Z,76.97
2023-03-12T09:42:16.640Z,76.62
2023-03-12T09:44:49.977Z,77.92
2023-03-12T09:47:26.453Z,76.73
2023-03-12T09:50:02.456Z,77.11
2023-03-12T09:52:39.690Z,76.25
2023-03-12T09:55:14.953Z,78.12
2023-03-12T09:57:49.138Z,78.33
2023-03-12T10:00:22.754Z,77.60
2023-03-12T10:03:10.322Z,77.87
2023-03-12T10:05:46.938Z,77.15
2023-03-12T10:08:28.866Z,77.70
2023-03-12T10:11:09.432Z,76.80
2023-03-12T10:13:58.397Z,77.43
2023-03-12T10:16:36.636Z,76.60
2023-03-12T10:19:22.602Z,77.00
2023-03-12T10:22:02.105Z,77.58
2023-03-12T10:24:42.753Z,76.94
2023-03-12T10:27:16.660Z,76.81
2023-03-12T10:29:51.341Z,76.61
2023-03-12T10:32:27.567Z,76.85
2023-03-12T10:35:01.708Z,76.42
2023-03-12T10:37:38.527Z,76.98
2023-03-12T10:40:15.500Z,77.39
2023-03-12T10:42:48.489Z,77.04
2023-03-12T10:45:24.975Z,77.41
2023-03-12T10:48:00.120Z,76.40
2023-03-12T10:50:33.400Z,76.99
2023-03-12T10:53:20.263Z,76.39
2023-03-12T10:56:01.862Z,77.35
2023-03-12T10:58:36.524Z,76.81
2023-03-12T11:01:21.017Z,76.01
2023-03-12T11:03:54.481Z,77.25
2023-03-12T11:06:28.768Z,76.05
2023-03-12T11:09:21.656Z,76.57
2023-03-12T11:11:57.523Z,75.57
2023-03-12T11:14:31.374Z,76.29
2023-03-12T11:17:22.155Z,75.72
2023-03-12T11:19:54.854Z,75.98
2023-03-12T11:22:29.257Z,75.98
2023-03-12T11:25:03.033Z,76.64
2023-03-12T11:27:41.793Z,76.66
2023-03-12T11:30:18.031Z,76.94
2023-03-12T11:32:51.862Z,77.11
2023-03-12T11:35:33.922Z,76.04
2023-03-12T11:38:15.405Z,77.05
2023-03-12T11:40:58.391Z,76.31
2023-03-12T11:43:43.578Z,77.45
2023-03-12T11:46:28.045Z,76.07
2023-03-12T11:49:08.721Z,76.19
2023-03-12T11:51:45.828Z,76.63
2023-03-12T11:54:39.714Z,76.19
2023-03-12T11:57:17.123Z,78.14
2023-03-12T12:00:00.491Z,76.29
2023-03-12T12:02:54.514Z,75.57
2023-03-12T12:05:32.809Z,75.79
2023-03-12T12:08:17.132Z,74.81
2023-03-12T12:10:53.587Z,77.38
2023-03-12T12:13:31.585Z,76.02
2023-03-12T12:16:11.741Z,74.73
2023-03-12T12:18:52.469Z,76.71
2023-03-12T12:21:34.157Z,76.04
2023-03-12T12:24:13.052Z,76.04
2023-03-12T12:26:50.819Z,74.31
2023-03-12T12:29:29.734Z,75.40
2023-03-12T12:32:05.556Z,74.44
2023-03-12T12:34:45.948Z,74.39
2023-03-12T12:37:23.079Z,76.28
2023-03-12T12:40:01.180Z,73.57
2023-03-12T12:42:36.800Z,74.17
2023-03-12T12:45:12.639Z,75.71
2023-03-12T12:47:48.896Z,75.29
2023-03-12T12:50:23.393Z,73.77
2023-03-12T12:52:59.129Z,75.59
2023-03-12T12:55:34.745Z,76.11
2023-03-12T12:58:13.230Z,74.46
2023-03-12T13:00:48.317Z,73.54
2023-03-12T13:03:23.869Z,72.72
2023-03-12T13:05:57.897Z,73.66
2023-03-12T13:08:36.273Z,74.44
2023-03-12T13:11:24.243Z,74.26
2023-03-12T13:14:21.369Z,76.50
2023-03-12T13:17:07.651Z,73.96
2023-03-12T13:19:44.948Z,74.30
2023-03-12T13:22:36.917Z,72.67
2023-03-12T13:25:19.064Z,72.33
2023-03-12T13:27:58.413Z,72.50
2023-03-12T13:30:47.755Z,71.57
2023-03-12T13:33:21.822Z,70.65
2023-03-12T13:36:06.528Z,70.49
2023-03-12T13:39:21.534Z,66.96
2023-03-12T13:41:56.297Z,67.78
2023-03-12T13:44:38.617Z,69.00
2023-03-12T13:47:23.756Z,68.02
2023-03-12T13:50:00.840Z,68.63
2023-03-12T13:52:39.102Z,66.39
2023-03-12T13:55:23.381Z,67.00
2023-03-12T13:57:58.747Z,68.38
2023-03-12T14:00:37.453Z,67.67
2023-03-12T14:03:17.369Z,66.96
2023-03-12T14:05:54.342Z,67.08
2023-03-12T14:08:54.481Z,67.27
2023-03-12T14:11:45.639Z,67.30
2023-03-12T14:14:41.642Z,67.14
2023-03-12T14:17:18.591Z,68.69
2023-03-12T14:19:58.255Z,67.65
2023-03-12T14:22:34.088Z,67.95
2023-03-12T14:25:15.707Z,67.59
2023-03-12T14:27:50.128Z,67.18
2023-03-12T14:30:26.198Z,67.92
2023-03-12T14:33:03.688Z,66.55
2023-03-12T14:35:42.368Z,68.03
2023-03-12T14:38:19.037Z,68.09
2023-03-12T14:40:56.618Z,68.09
2023-03-12T14:43:33.142Z,68.01
2023-03-12T14:46:14.865Z,67.72
2023-03-12T14:48:49.740Z,69.28
2023-03-12T14:51:25.340Z,68.12
2023-03-12T14:54:04.272Z,67.69
2023-03-12T14:56:37.155Z,69.00
2023-03-12T14:59:24.034Z,69.00
2023-03-12T15:02:01.574Z,68.14
2023-03-12T15:04:36.250Z,68.12
2023-03-12T15:07:12.883Z,67.85
2023-03-12T15:09:49.895Z,67.50
2023-03-12T15:12:25.067Z,66.95
2023-03-12T15:15:07.123Z,68.11
2023-03-12T15:17:40.011Z,67.61
2023-03-12T15:20:16.298Z,69.73
2023-03-12T15:22:49.975Z,68.58
2023-03-12T15:25:23.973Z,68.21
2023-03-12T15:28:06.063Z,68.62
2023-03-12T15:30:41.288Z,71.23
2023-03-12T15:33:25.771Z,69.38
2023-03-12T15:36:02.373Z,68.83
2023-03-12T15:38:38.344Z,68.97
2023-03-12T15:41:23.127Z,68.77
2023-03-12T15:43:58.607Z,69.69
2023-03-12T15:46:34.065Z,68.98
2023-03-12T15:49:07.341Z,68.16
2023-03-12T15:51:40.582Z,69.16
2023-03-12T15:54:27.310Z,68.85
2023-03-12T15:57:22.551Z,69.06
2023-03-12T16:00:17.596Z,69.27
2023-03-12T16:02:54.622Z,69.42
2023-03-12T16:05:31.888Z,68.86
2023-03-12T16:08:16.385Z,69.72
2023-03-12T16:10:50.673Z,69.50
2023-03-12T16:13:29.983Z,70.90
2023-03-12T16:16:05.693Z,69.24
2023-03-12T16:18:40.271Z,69.71
2023-03-12T16:21:13.460Z,69.51
2023-03-12T16:23:46.244Z,69.53
2023-03-12T16:26:19.716Z,70.00
2023-03-12T16:28:52.677Z,69.28
2023-03-12T16:31:25.573Z,69.70
2023-03-12T16:34:00.124Z,70.06
2023-03-12T16:36:32.884Z,69.90
2023-03-12T16:39:06.030Z,70.19
2023-03-12T16:41:39.607Z,70.49
2023-03-12T16:44:17.088Z,71.49
2023-03-12T16:46:50.267Z,70.96
2023-03-12T16:49:24.568Z,70.34
2023-03-12T16:51:57.709Z,70.34
2023-03-12T16:54:30.374Z,70.18
2023-03-12T16:57:03.262Z,71.04
2023-03-12T16:59:38.143Z,70.20
2023-03-12T17:02:16.605Z,70.95
2023-03-12T17:04:51.110Z,71.36
2023-03-12T17:07:24.109Z,71.02
2023-03-12T17:09:57.390Z,72.08
2023-03-12T17:12:32.223Z,70.77
2023-03-12T17:15:09.057Z,71.17
2023-03-12T17:17:42.037Z,70.61
2023-03-12T17:20:18.032Z,71.28
2023-03-12T17:22:51.350Z,70.80
2023-03-12T17:25:27.217Z,71.30
2023-03-12T17:28:00.469Z,70.42
2023-03-12T17:30:34.427Z,70.65
2023-03-12T17:33:10.450Z,70.83
2023-03-12T17:35:47.002Z,71.33
2023-03-12T17:38:20.520Z,70.87
2023-03-12T17:40:53.339Z,71.08
2023-03-12T17:43:26.374Z,70.84
2023-03-12T17:45:59.039Z,70.97
2023-03-12T17:48:32.160Z,70.84
2023-03-12T17:51:08.600Z,71.63
2023-03-12T17:53:42.183Z,71.58
2023-03-12T17:56:17.892Z,71.07
2023-03-12T17:58:50.877Z,71.73
2023-03-12T18:01:23.472Z,71.58
2023-03-12T18:03:56.332Z,71.88
2023-03-12T18:06:30.444Z,71.29
2023-03-12T18:09:04.013Z,71.50
2023-03-12T18:11:36.982Z,71.40
2023-03-12T18:14:09.716Z,71.68
2023-03-12T18:16:42.491Z,71.48
2023-03-12T18:19:16.079Z,71.86
2023-03-12T18:21:50.167Z,71.50
2023-03-12T18:24:23.384Z,71.40
2023-03-12T18:26:56.360Z,71.18
2023-03-12T18:29:29.031Z,71.13
2023-03-12T18:32:01.829Z,71.02
2023-03-12T18:34:34.572Z,71.23
2023-03-12T18:37:08.693Z,70.92
2023-03-12T18:39:41.686Z,71.13
2023-03-12T18:42:14.373Z,70.49
2023-03-12T18:44:47.272Z,70.75
2023-03-12T18:47:20.325Z,70.47
2023-03-12T18:49:55.198Z,69.98
2023-03-12T18:52:29.264Z,71.41
2023-03-12T18:55:02.215Z,70.79
2023-03-12T18:57:34.892Z,70.95
2023-03-12T19:00:13.272Z,71.00
2023-03-12T19:02:48.093Z,71.01
2023-03-12T19:05:21.606Z,70.20
2023-03-12T19:07:55.893Z,69.96
2023-03-12T19:10:29.005Z,70.38
2023-03-12T19:13:02.215Z,69.44
2023-03-12T19:15:38.159Z,69.69
2023-03-12T19:18:10.970Z,70.29
2023-03-12T19:20:43.722Z,70.76
2023-03-12T19:23:19.998Z,70.78
2023-03-12T19:25:53.100Z,70.73
2023-03-12T19:28:28.487Z,71.72
2023-03-12T19:31:01.853Z,72.41
2023-03-12T19:33:35.050Z,71.28
2023-03-12T20:10:39.469Z,71.08
2023-03-12T20:39:07.731Z,71.86
2023-03-12T20:41:42.719Z,72.18
2023-03-12T20:44:15.946Z,72.17
2023-03-12T20:46:48.721Z,71.63
2023-03-12T20:49:21.564Z,71.64
2023-03-12T20:51:54.231Z,71.84
2023-03-12T20:54:28.578Z,72.00
2023-03-12T20:57:01.376Z,71.66
2023-03-12T20:59:34.047Z,72.44
2023-03-12T21:02:06.830Z,71.79
2023-03-12T21:04:45.424Z,72.17
2023-03-12T21:07:23.355Z,72.97
2023-03-12T21:32:23.413Z,73.87
2023-03-12T21:41:13.339Z,74.13
2023-03-12T21:46:35.825Z,73.80
2023-03-12T22:17:17.555Z,74.79
2023-03-12T22:19:51.768Z,75.08
2023-03-12T22:22:24.587Z,75.40
2023-03-12T22:24:57.257Z,75.13
2023-03-12T22:27:30.160Z,75.24
2023-03-12T22:30:03.328Z,75.39
2023-03-12T22:32:37.672Z,74.78
2023-03-12T22:35:10.811Z,75.22
2023-03-12T22:37:45.260Z,75.56
2023-03-12T22:40:18.189Z,75.27
2023-03-12T22:42:51.151Z,75.09
2023-03-12T22:45:24.152Z,75.19
2023-03-12T22:47:58.417Z,74.56
2023-03-12T22:50:31.386Z,75.11
2023-03-12T22:53:03.982Z,75.17
2023-03-12T22:55:36.804Z,75.10
2023-03-12T22:58:10.434Z,75.14
2023-03-12T23:00:43.264Z,75.01
2023-03-12T23:03:17.455Z,75.61
2023-03-12T23:05:50.140Z,75.76
2023-03-12T23:08:23.606Z,76.46
2023-03-12T23:10:58.813Z,75.69
2023-03-12T23:13:34.589Z,76.45
2023-03-12T23:16:09.787Z,76.73
2023-03-12T23:18:45.876Z,76.15
2023-03-12T23:21:21.340Z,76.29
2023-03-12T23:23:54.341Z,76.59
2023-03-12T23:26:30.763Z,76.84
2023-03-12T23:29:03.915Z,77.23
2023-03-12T23:31:36.643Z,76.71
2023-03-12T23:34:11.429Z,77.52
2023-03-12T23:36:46.015Z,77.20
2023-03-12T23:39:18.915Z,76.81
2023-03-12T23:41:51.545Z,76.83
2023-03-12T23:44:24.383Z,76.90
2023-03-12T23:46:57.190Z,77.38
2023-03-12T23:49:31.301Z,77.70
2023-03-12T23:52:04.329Z,78.15
2023-03-12T23:54:37.230Z,79.00
2023-03-12T23:57:09.982Z,78.67
2023-03-12T23:59:42.812Z,79.33
